Aldenville, Pennsylvania
Current Conditions -  °F | °C
As of 7:55 AM on Friday 24 Oct 2014 (Local Time) from KMSV Reporting Station
Overcast Overcast  
Wind Chill: 38°   Ceiling: 1600
Heat Index: 45°   Visibility: 10mi
Dew Point: 43°   Wind: 13mph
Humidity: 93%   Direction: 310°NW
Pressure: 29.85"   Gusts: NA
Location:  41.65°N, 75.36°W
Report Text: KMSV 241155Z AUTO 31011KT 10SM OVC016 07/06 A2985 RMK AO1 60001 70001 10070 20060 52010
Loading
Personal Weather Stations






























Interactive Weather Map
Tropical Storm Tracking
New forecast layout! Learn more

10-Day Weather Forecast

Advertisements
Track Severe Weather on mobile